createdAt,value
2023-02-24T00:03:36.876Z,3.03
2023-02-24T00:08:33.686Z,2.88
2023-02-24T00:13:30.996Z,3.28
2023-02-24T00:18:27.857Z,2.97
2023-02-24T00:23:25.433Z,3.20
2023-02-24T00:28:22.194Z,3.42
2023-02-24T00:33:22.930Z,2.92
2023-02-24T00:38:19.975Z,3.30
2023-02-24T00:43:17.617Z,3.30
2023-02-24T00:48:15.276Z,3.45
2023-02-24T00:53:12.191Z,2.60
2023-02-24T00:58:09.251Z,3.45
2023-02-24T01:03:07.225Z,3.42
2023-02-24T01:08:04.485Z,4.32
2023-02-24T01:13:02.003Z,3.92
2023-02-24T01:17:58.846Z,3.13
2023-02-24T01:22:57.337Z,4.10
2023-02-24T01:27:54.477Z,4.00
2023-02-24T01:32:51.503Z,3.97
2023-02-24T01:37:48.770Z,4.32
2023-02-24T01:42:48.823Z,4.47
2023-02-24T01:47:47.317Z,3.50
2023-02-24T01:52:47.695Z,4.80
2023-02-24T01:57:45.613Z,3.30
2023-02-24T02:02:50.883Z,3.53
2023-02-24T02:07:50.111Z,4.63
2023-02-24T02:12:47.629Z,4.38
2023-02-24T02:17:59.375Z,4.63
2023-02-24T02:23:18.020Z,5.18
2023-02-24T02:28:53.720Z,4.22
2023-02-24T02:34:11.985Z,4.30
2023-02-24T02:39:16.432Z,4.90
2023-02-24T02:44:19.939Z,3.53
2023-02-24T02:49:23.519Z,3.42
2023-02-24T02:54:27.402Z,3.45
2023-02-24T02:59:27.689Z,3.90
2023-02-24T03:04:26.496Z,3.33
2023-02-24T03:09:28.855Z,3.67
2023-02-24T03:14:29.270Z,3.20
2023-02-24T03:19:36.703Z,3.88
2023-02-24T03:24:38.240Z,3.90
2023-02-24T03:29:44.326Z,4.22
2023-02-24T03:34:50.643Z,6.32
2023-02-24T03:39:50.730Z,6.00
2023-02-24T03:44:51.757Z,4.97
2023-02-24T03:49:50.108Z,4.75
2023-02-24T03:55:08.949Z,4.57
2023-02-24T04:00:21.853Z,5.43
2023-02-24T04:05:26.940Z,5.75
2023-02-24T04:10:34.014Z,6.05
2023-02-24T04:15:39.744Z,6.43
2023-02-24T04:20:40.442Z,5.40
2023-02-24T04:25:42.999Z,5.50
2023-02-24T04:30:42.194Z,5.40
2023-02-24T04:35:41.086Z,7.50
2023-02-24T04:40:40.286Z,6.72
2023-02-24T04:45:39.483Z,7.32
2023-02-24T04:50:37.779Z,8.07
2023-02-24T04:55:39.457Z,7.97
2023-02-24T05:00:39.738Z,5.43
2023-02-24T05:05:36.801Z,5.88
2023-02-24T05:10:39.823Z,5.50
2023-02-24T05:15:41.402Z,6.40
2023-02-24T05:21:01.644Z,9.50
2023-02-24T05:26:00.050Z,14.73
2023-02-24T05:31:05.382Z,12.40
2023-02-24T05:36:05.699Z,8.00
2023-02-24T05:41:07.010Z,6.50
2023-02-24T05:46:04.379Z,4.60
2023-02-24T05:51:04.285Z,5.38
2023-02-24T05:56:05.027Z,7.45
2023-02-24T06:01:15.648Z,6.80
2023-02-24T06:06:12.874Z,6.22
2023-02-24T06:11:10.158Z,7.03
2023-02-24T06:16:12.165Z,7.30
2023-02-24T06:21:11.892Z,8.35
2023-02-24T06:26:12.434Z,7.25
2023-02-24T06:31:10.419Z,5.93
2023-02-24T06:36:08.271Z,4.40
2023-02-24T06:41:10.249Z,4.85
2023-02-24T06:46:11.934Z,4.78
2023-02-24T06:51:19.923Z,5.32
2023-02-24T06:56:19.297Z,4.82
2023-02-24T07:01:19.926Z,4.40
2023-02-24T07:06:23.856Z,7.55
2023-02-24T07:11:21.503Z,5.72
2023-02-24T07:16:24.525Z,5.03
2023-02-24T07:21:23.289Z,6.30
2023-02-24T07:26:22.586Z,6.32
2023-02-24T07:31:22.297Z,6.90
2023-02-24T07:36:22.551Z,6.53
2023-02-24T07:41:22.311Z,7.75
2023-02-24T07:46:23.888Z,6.82
2023-02-24T07:51:36.428Z,6.43
2023-02-24T07:56:33.488Z,7.05
2023-02-24T08:01:50.322Z,6.63
2023-02-24T08:06:50.808Z,8.85
2023-02-24T08:11:51.641Z,6.30
2023-02-24T08:16:51.397Z,5.28
2023-02-24T08:21:50.151Z,8.18
2023-02-24T08:27:03.688Z,7.47
2023-02-24T08:32:01.573Z,8.25
2023-02-24T08:36:58.789Z,9.00
2023-02-24T08:41:56.864Z,8.85
2023-02-24T08:46:54.562Z,8.18
2023-02-24T08:51:53.022Z,9.18
2023-02-24T08:56:55.225Z,7.10
2023-02-24T09:02:10.158Z,7.85
2023-02-24T09:07:14.776Z,8.10
2023-02-24T09:12:21.165Z,7.63
2023-02-24T09:17:20.485Z,8.73
2023-02-24T09:22:30.837Z,8.00
2023-02-24T09:27:28.670Z,9.45
2023-02-24T09:32:34.696Z,10.13
2023-02-24T09:37:45.474Z,8.65
2023-02-24T09:42:57.701Z,9.13
2023-02-24T09:47:57.848Z,7.70
2023-02-24T09:53:16.206Z,7.50
2023-02-24T09:58:29.387Z,9.60
2023-02-24T10:03:47.343Z,9.32
2023-02-24T10:08:51.567Z,10.40
2023-02-24T10:14:03.423Z,7.85
2023-02-24T10:19:14.474Z,8.18
2023-02-24T10:24:22.377Z,9.40
2023-02-24T10:29:35.424Z,8.73
2023-02-24T10:34:33.607Z,7.70
2023-02-24T10:39:32.795Z,10.65
2023-02-24T10:44:35.464Z,9.77
2023-02-24T10:49:42.409Z,10.50
2023-02-24T10:55:04.442Z,10.60
2023-02-24T11:00:19.650Z,11.35
2023-02-24T11:05:37.393Z,11.10
2023-02-24T11:10:52.395Z,11.38
2023-02-24T11:16:12.466Z,9.83
2023-02-24T11:21:12.386Z,10.30
2023-02-24T11:26:16.511Z,10.05
2023-02-24T11:31:28.021Z,12.57
2023-02-24T11:36:33.332Z,11.25
2023-02-24T11:41:36.317Z,11.05
2023-02-24T11:46:41.120Z,10.07
2023-02-24T11:51:38.394Z,10.83
2023-02-24T11:56:41.664Z,11.70
2023-02-24T12:01:43.800Z,10.70
2023-02-24T12:06:52.990Z,10.75
2023-02-24T12:11:56.866Z,8.98
2023-02-24T12:17:03.325Z,11.18
2023-02-24T12:22:14.334Z,8.60
2023-02-24T12:27:25.967Z,8.77
2023-02-24T12:32:36.282Z,7.97
2023-02-24T12:37:54.023Z,11.32
2023-02-24T12:43:03.734Z,8.48
2023-02-24T12:48:11.806Z,8.85
2023-02-24T12:53:18.216Z,8.77
2023-02-24T12:58:21.794Z,7.60
2023-02-24T13:03:35.611Z,8.02
2023-02-24T13:08:44.705Z,7.78
2023-02-24T13:13:50.099Z,7.90
2023-02-24T13:23:53.301Z,8.52
2023-02-24T13:28:59.728Z,10.18
2023-02-24T13:33:56.710Z,10.82
2023-02-24T13:39:08.146Z,10.38
2023-02-24T13:44:26.662Z,8.95
2023-02-24T13:49:32.622Z,9.60
2023-02-24T13:54:53.102Z,9.73
2023-02-24T14:00:09.573Z,12.88
2023-02-24T14:05:13.552Z,10.25
2023-02-24T14:10:18.499Z,11.48
2023-02-24T14:15:20.502Z,9.93
2023-02-24T14:20:23.284Z,11.18
2023-02-24T14:25:22.750Z,11.43
2023-02-24T14:30:28.095Z,9.98
2023-02-24T14:35:33.555Z,10.93
2023-02-24T14:45:30.233Z,11.93
2023-02-24T14:50:30.663Z,10.05
2023-02-24T14:55:31.427Z,11.55
2023-02-24T15:00:34.647Z,11.30
2023-02-24T15:05:32.124Z,11.55
2023-02-24T15:10:31.300Z,9.63
2023-02-24T15:15:34.603Z,9.80
2023-02-24T15:20:35.614Z,10.93
2023-02-24T15:25:43.260Z,12.13
2023-02-24T15:30:58.273Z,11.35
2023-02-24T15:35:58.876Z,10.48
2023-02-24T15:40:59.044Z,11.52
2023-02-24T15:45:56.815Z,11.45
2023-02-24T15:50:54.717Z,13.00
2023-02-24T15:55:53.857Z,13.52
2023-02-24T16:01:00.438Z,11.45
2023-02-24T16:05:58.740Z,11.73
2023-02-24T16:10:55.839Z,13.57
2023-02-24T16:15:53.823Z,12.88
2023-02-24T16:20:53.742Z,12.93
2023-02-24T16:25:56.461Z,13.50
2023-02-24T16:30:54.128Z,13.15
2023-02-24T16:35:52.851Z,11.63
2023-02-24T16:40:50.402Z,14.07
2023-02-24T16:45:47.601Z,12.85
2023-02-24T16:50:44.729Z,14.45
2023-02-24T16:55:43.028Z,14.98
2023-02-24T17:00:41.634Z,18.58
2023-02-24T17:05:38.615Z,18.60
2023-02-24T17:10:38.543Z,19.02
2023-02-24T17:15:36.096Z,19.05
2023-02-24T17:20:34.077Z,19.23
2023-02-24T17:25:31.977Z,18.58
2023-02-24T17:30:32.716Z,16.27
2023-02-24T17:35:30.651Z,17.10
2023-02-24T17:40:27.990Z,17.65
2023-02-24T17:45:25.276Z,17.90
2023-02-24T17:50:22.288Z,19.55
2023-02-24T17:55:21.779Z,15.65
2023-02-24T18:00:18.911Z,15.65
2023-02-24T18:05:15.996Z,16.58
2023-02-24T18:10:13.258Z,15.27
2023-02-24T18:15:11.770Z,18.95
2023-02-24T18:20:11.692Z,17.33
2023-02-24T18:25:10.399Z,14.60
2023-02-24T18:30:09.573Z,18.38
2023-02-24T18:35:08.709Z,18.45
2023-02-24T18:40:07.300Z,18.52
2023-02-24T18:45:04.945Z,20.45
2023-02-24T18:50:01.976Z,20.23
2023-02-24T18:54:59.580Z,21.10
2023-02-24T18:59:56.672Z,20.20
2023-02-24T19:04:54.751Z,19.55
2023-02-24T19:10:01.394Z,18.38
2023-02-24T19:14:58.251Z,22.30
2023-02-24T19:19:55.074Z,24.25
2023-02-24T19:24:51.860Z,24.92
2023-02-24T19:29:49.841Z,23.80
2023-02-24T19:34:47.725Z,27.83
2023-02-24T19:39:44.768Z,30.33
2023-02-24T19:44:41.651Z,36.15
2023-02-24T19:49:42.136Z,35.42
2023-02-24T19:54:39.213Z,35.35
2023-02-24T19:59:36.150Z,36.55
2023-02-24T20:04:33.727Z,37.25
2023-02-24T20:09:32.234Z,35.00
2023-02-24T20:14:32.613Z,37.95
2023-02-24T20:19:33.784Z,37.35
2023-02-24T20:24:34.705Z,39.20
2023-02-24T20:29:35.274Z,40.78
2023-02-24T20:34:41.253Z,34.60
2023-02-24T20:39:39.308Z,38.20
2023-02-24T20:44:36.242Z,38.30
2023-02-24T20:49:33.336Z,36.03
2023-02-24T20:54:30.404Z,40.60
2023-02-24T20:59:28.045Z,38.72
2023-02-24T21:04:24.972Z,39.80
2023-02-24T21:09:21.974Z,38.13
2023-02-24T21:14:19.651Z,37.30
2023-02-24T21:19:19.655Z,36.30
2023-02-24T21:24:17.482Z,39.28
2023-02-24T21:29:14.425Z,41.35
2023-02-24T21:34:11.494Z,39.75
2023-02-24T21:39:13.865Z,36.58
2023-02-24T21:44:11.989Z,33.30
2023-02-24T21:49:13.706Z,33.90
2023-02-24T21:54:12.166Z,34.60
2023-02-24T21:59:10.603Z,36.38
2023-02-24T22:04:09.996Z,35.40
2023-02-24T22:09:08.718Z,34.38
2023-02-24T22:14:08.248Z,35.15
2023-02-24T22:19:06.055Z,33.67
2023-02-24T22:24:03.836Z,37.17
2023-02-24T22:29:01.662Z,38.67
2023-02-24T22:34:00.251Z,31.58
2023-02-24T22:38:59.350Z,33.83
2023-02-24T22:43:56.673Z,32.00
2023-02-24T22:48:53.837Z,33.10
2023-02-24T22:53:52.233Z,35.42
2023-02-24T22:58:49.405Z,34.05
2023-02-24T23:03:46.383Z,33.67
2023-02-24T23:08:46.162Z,31.35
2023-02-24T23:13:47.290Z,34.60
2023-02-24T23:18:47.946Z,33.58
2023-02-24T23:23:46.239Z,33.35
2023-02-24T23:28:44.276Z,39.47
2023-02-24T23:33:43.398Z,33.95
2023-02-24T23:38:40.500Z,34.05
2023-02-24T23:43:38.268Z,34.90
2023-02-24T23:48:36.546Z,32.38
2023-02-24T23:53:37.077Z,30.75
2023-02-24T23:58:34.106Z,30.67
